High Rock, North Carolina
Current Conditions -  °F | °C
As of 9:55 PM on Saturday 25 Oct 2014 (Local Time) from KHBI Reporting Station
Clear Clear  
Wind Chill: 58°   Ceiling: Unl
Heat Index: 58°   Visibility: 10mi
Dew Point: 38°   Wind: 7mph
Humidity: 46%   Direction: 200°SSW
Pressure: 29.95"   Gusts: NA
Location:  35.6015°N, 80.0858°W
Report Text: KHBI 260155Z AUTO 20006KT 10SM CLR 15/03 A2995 RMK AO2 T01470032
Loading
Personal Weather Stations






























Interactive Weather Map
Tropical Storm Tracking
New forecast layout! Learn more

10-Day Weather Forecast

Advertisements
Track Severe Weather on mobile